sensor_id;sensor_type;location;lat;lon;timestamp;P1;durP1;ratioP1;P2;durP2;ratioP2
75156;SDS011;63736;50.076;8.198;2023-11-19T00:01:06;452.10;;;120.20;;
75156;SDS011;63736;50.076;8.198;2023-11-19T00:03:32;453.17;;;120.45;;
75156;SDS011;63736;50.076;8.198;2023-11-19T00:05:58;451.30;;;122.00;;
75156;SDS011;63736;50.076;8.198;2023-11-19T00:08:24;436.10;;;117.37;;
75156;SDS011;63736;50.076;8.198;2023-11-19T00:10:49;438.73;;;117.68;;
75156;SDS011;63736;50.076;8.198;2023-11-19T00:13:16;442.07;;;116.83;;
75156;SDS011;63736;50.076;8.198;2023-11-19T00:15:41;444.93;;;117.80;;
75156;SDS011;63736;50.076;8.198;2023-11-19T00:18:06;448.10;;;117.87;;
75156;SDS011;63736;50.076;8.198;2023-11-19T00:20:32;444.10;;;117.60;;
75156;SDS011;63736;50.076;8.198;2023-11-19T00:22:57;455.23;;;120.50;;
75156;SDS011;63736;50.076;8.198;2023-11-19T00:25:22;480.80;;;127.23;;
75156;SDS011;63736;50.076;8.198;2023-11-19T00:27:47;534.80;;;143.67;;
75156;SDS011;63736;50.076;8.198;2023-11-19T00:30:13;546.50;;;147.77;;
75156;SDS011;63736;50.076;8.198;2023-11-19T00:32:39;568.05;;;155.80;;
75156;SDS011;63736;50.076;8.198;2023-11-19T00:35:06;568.28;;;154.82;;
75156;SDS011;63736;50.076;8.198;2023-11-19T00:37:32;580.45;;;158.48;;
75156;SDS011;63736;50.076;8.198;2023-11-19T00:39:57;600.33;;;167.23;;
75156;SDS011;63736;50.076;8.198;2023-11-19T00:42:23;510.13;;;135.57;;
75156;SDS011;63736;50.076;8.198;2023-11-19T00:44:52;510.50;;;135.32;;
75156;SDS011;63736;50.076;8.198;2023-11-19T00:47:17;514.13;;;136.37;;
75156;SDS011;63736;50.076;8.198;2023-11-19T00:49:47;526.67;;;139.73;;
75156;SDS011;63736;50.076;8.198;2023-11-19T00:52:18;519.67;;;138.05;;
75156;SDS011;63736;50.076;8.198;2023-11-19T00:54:44;543.03;;;146.15;;
75156;SDS011;63736;50.076;8.198;2023-11-19T00:57:09;548.10;;;145.50;;
75156;SDS011;63736;50.076;8.198;2023-11-19T00:59:35;544.13;;;145.43;;
75156;SDS011;63736;50.076;8.198;2023-11-19T01:02:00;553.17;;;147.80;;
75156;SDS011;63736;50.076;8.198;2023-11-19T01:04:32;544.70;;;145.30;;
75156;SDS011;63736;50.076;8.198;2023-11-19T01:06:58;504.50;;;133.07;;
75156;SDS011;63736;50.076;8.198;2023-11-19T01:09:23;506.63;;;133.07;;
75156;SDS011;63736;50.076;8.198;2023-11-19T01:11:49;504.67;;;133.17;;
75156;SDS011;63736;50.076;8.198;2023-11-19T01:14:14;514.47;;;136.63;;
75156;SDS011;63736;50.076;8.198;2023-11-19T01:16:39;518.23;;;138.40;;
75156;SDS011;63736;50.076;8.198;2023-11-19T01:19:04;496.07;;;130.73;;
75156;SDS011;63736;50.076;8.198;2023-11-19T01:21:30;503.47;;;133.00;;
75156;SDS011;63736;50.076;8.198;2023-11-19T01:23:57;509.65;;;135.13;;
75156;SDS011;63736;50.076;8.198;2023-11-19T01:26:23;512.17;;;136.25;;
75156;SDS011;63736;50.076;8.198;2023-11-19T01:28:48;518.40;;;138.57;;
75156;SDS011;63736;50.076;8.198;2023-11-19T01:31:16;520.80;;;140.00;;
75156;SDS011;63736;50.076;8.198;2023-11-19T01:33:42;497.95;;;131.65;;
75156;SDS011;63736;50.076;8.198;2023-11-19T01:36:07;494.37;;;129.73;;
75156;SDS011;63736;50.076;8.198;2023-11-19T01:38:33;480.08;;;126.65;;
75156;SDS011;63736;50.076;8.198;2023-11-19T01:40:59;479.57;;;125.43;;
75156;SDS011;63736;50.076;8.198;2023-11-19T01:43:31;490.05;;;128.45;;
75156;SDS011;63736;50.076;8.198;2023-11-19T01:45:58;494.73;;;130.23;;
75156;SDS011;63736;50.076;8.198;2023-11-19T01:48:23;509.63;;;134.60;;
75156;SDS011;63736;50.076;8.198;2023-11-19T01:50:48;502.60;;;132.93;;
75156;SDS011;63736;50.076;8.198;2023-11-19T01:53:15;497.50;;;130.63;;
75156;SDS011;63736;50.076;8.198;2023-11-19T01:55:41;477.38;;;125.55;;
75156;SDS011;63736;50.076;8.198;2023-11-19T01:58:07;478.10;;;126.63;;
75156;SDS011;63736;50.076;8.198;2023-11-19T02:00:32;485.33;;;127.97;;
75156;SDS011;63736;50.076;8.198;2023-11-19T02:02:58;491.13;;;131.50;;
75156;SDS011;63736;50.076;8.198;2023-11-19T02:05:23;503.45;;;134.07;;
75156;SDS011;63736;50.076;8.198;2023-11-19T02:07:49;528.53;;;142.43;;
75156;SDS011;63736;50.076;8.198;2023-11-19T02:10:16;531.83;;;143.10;;
75156;SDS011;63736;50.076;8.198;2023-11-19T02:12:44;566.22;;;156.95;;
75156;SDS011;63736;50.076;8.198;2023-11-19T02:15:10;557.03;;;153.43;;
75156;SDS011;63736;50.076;8.198;2023-11-19T02:17:36;552.33;;;151.60;;
75156;SDS011;63736;50.076;8.198;2023-11-19T02:20:03;524.77;;;141.07;;
75156;SDS011;63736;50.076;8.198;2023-11-19T02:22:31;532.38;;;143.95;;
75156;SDS011;63736;50.076;8.198;2023-11-19T02:24:59;541.57;;;149.43;;
75156;SDS011;63736;50.076;8.198;2023-11-19T02:30:24;601.67;;;170.57;;
75156;SDS011;63736;50.076;8.198;2023-11-19T02:32:52;606.38;;;174.07;;
75156;SDS011;63736;50.076;8.198;2023-11-19T02:35:19;660.75;;;198.48;;
75156;SDS011;63736;50.076;8.198;2023-11-19T02:37:46;610.73;;;177.67;;
75156;SDS011;63736;50.076;8.198;2023-11-19T02:40:12;620.38;;;179.00;;
75156;SDS011;63736;50.076;8.198;2023-11-19T02:42:38;627.00;;;185.98;;
75156;SDS011;63736;50.076;8.198;2023-11-19T02:45:03;627.10;;;184.67;;
75156;SDS011;63736;50.076;8.198;2023-11-19T02:47:31;627.20;;;182.48;;
75156;SDS011;63736;50.076;8.198;2023-11-19T02:53:18;632.10;;;184.43;;
75156;SDS011;63736;50.076;8.198;2023-11-19T02:55:46;570.87;;;158.57;;
75156;SDS011;63736;50.076;8.198;2023-11-19T02:58:14;483.80;;;126.38;;
75156;SDS011;63736;50.076;8.198;2023-11-19T03:00:48;467.70;;;122.10;;
75156;SDS011;63736;50.076;8.198;2023-11-19T03:03:26;512.67;;;135.23;;
75156;SDS011;63736;50.076;8.198;2023-11-19T03:05:56;580.33;;;155.25;;
75156;SDS011;63736;50.076;8.198;2023-11-19T03:08:21;564.57;;;148.93;;
75156;SDS011;63736;50.076;8.198;2023-11-19T03:10:47;564.17;;;149.43;;
75156;SDS011;63736;50.076;8.198;2023-11-19T03:13:13;578.10;;;152.10;;
75156;SDS011;63736;50.076;8.198;2023-11-19T03:15:39;621.70;;;164.20;;
75156;SDS011;63736;50.076;8.198;2023-11-19T03:18:05;719.38;;;217.02;;
75156;SDS011;63736;50.076;8.198;2023-11-19T03:20:30;646.40;;;182.60;;
75156;SDS011;63736;50.076;8.198;2023-11-19T03:22:55;694.33;;;204.60;;
75156;SDS011;63736;50.076;8.198;2023-11-19T03:25:24;714.25;;;215.73;;
75156;SDS011;63736;50.076;8.198;2023-11-19T03:27:51;634.50;;;178.60;;
75156;SDS011;63736;50.076;8.198;2023-11-19T03:30:16;657.00;;;186.50;;
75156;SDS011;63736;50.076;8.198;2023-11-19T03:32:42;715.85;;;213.70;;
75156;SDS011;63736;50.076;8.198;2023-11-19T03:35:08;760.73;;;237.63;;
75156;SDS011;63736;50.076;8.198;2023-11-19T03:37:34;771.15;;;242.55;;
75156;SDS011;63736;50.076;8.198;2023-11-19T03:39:59;771.10;;;245.00;;
75156;SDS011;63736;50.076;8.198;2023-11-19T03:42:28;792.93;;;255.03;;
75156;SDS011;63736;50.076;8.198;2023-11-19T03:44:54;798.60;;;257.63;;
75156;SDS011;63736;50.076;8.198;2023-11-19T03:47:19;868.20;;;294.83;;
75156;SDS011;63736;50.076;8.198;2023-11-19T03:49:48;750.10;;;238.00;;
75156;SDS011;63736;50.076;8.198;2023-11-19T03:52:14;767.35;;;249.23;;
75156;SDS011;63736;50.076;8.198;2023-11-19T03:54:40;731.60;;;231.53;;
75156;SDS011;63736;50.076;8.198;2023-11-19T03:57:05;723.13;;;225.38;;
75156;SDS011;63736;50.076;8.198;2023-11-19T03:59:31;733.53;;;229.90;;
75156;SDS011;63736;50.076;8.198;2023-11-19T04:01:56;770.40;;;249.60;;
75156;SDS011;63736;50.076;8.198;2023-11-19T04:04:21;800.33;;;265.80;;
75156;SDS011;63736;50.076;8.198;2023-11-19T04:06:47;853.17;;;296.55;;
75156;SDS011;63736;50.076;8.198;2023-11-19T04:09:12;775.70;;;255.03;;
75156;SDS011;63736;50.076;8.198;2023-11-19T04:11:37;565.47;;;155.00;;
75156;SDS011;63736;50.076;8.198;2023-11-19T04:14:03;519.47;;;138.77;;
75156;SDS011;63736;50.076;8.198;2023-11-19T04:16:28;529.17;;;142.03;;
75156;SDS011;63736;50.076;8.198;2023-11-19T04:18:56;529.20;;;141.90;;
75156;SDS011;63736;50.076;8.198;2023-11-19T04:21:22;529.33;;;140.87;;
75156;SDS011;63736;50.076;8.198;2023-11-19T04:23:48;529.13;;;141.70;;
75156;SDS011;63736;50.076;8.198;2023-11-19T04:26:13;526.70;;;140.27;;
75156;SDS011;63736;50.076;8.198;2023-11-19T04:28:39;535.80;;;142.93;;
75156;SDS011;63736;50.076;8.198;2023-11-19T04:31:04;539.65;;;144.90;;
75156;SDS011;63736;50.076;8.198;2023-11-19T04:33:30;542.70;;;145.67;;
75156;SDS011;63736;50.076;8.198;2023-11-19T04:35:56;530.20;;;140.73;;
75156;SDS011;63736;50.076;8.198;2023-11-19T04:38:21;527.15;;;140.07;;
75156;SDS011;63736;50.076;8.198;2023-11-19T04:40:46;527.20;;;139.93;;
75156;SDS011;63736;50.076;8.198;2023-11-19T04:43:12;532.43;;;142.33;;
75156;SDS011;63736;50.076;8.198;2023-11-19T04:45:37;523.50;;;139.90;;
75156;SDS011;63736;50.076;8.198;2023-11-19T04:48:04;520.05;;;138.50;;
75156;SDS011;63736;50.076;8.198;2023-11-19T04:50:29;521.20;;;139.83;;
75156;SDS011;63736;50.076;8.198;2023-11-19T04:52:55;515.35;;;137.45;;
75156;SDS011;63736;50.076;8.198;2023-11-19T04:55:20;510.67;;;135.80;;
75156;SDS011;63736;50.076;8.198;2023-11-19T04:57:46;514.63;;;136.97;;
75156;SDS011;63736;50.076;8.198;2023-11-19T05:00:11;517.10;;;137.93;;
75156;SDS011;63736;50.076;8.198;2023-11-19T05:02:37;514.33;;;136.27;;
75156;SDS011;63736;50.076;8.198;2023-11-19T05:05:02;503.97;;;134.40;;
75156;SDS011;63736;50.076;8.198;2023-11-19T05:07:29;498.92;;;132.13;;
75156;SDS011;63736;50.076;8.198;2023-11-19T05:09:55;492.83;;;130.32;;
75156;SDS011;63736;50.076;8.198;2023-11-19T05:12:20;488.47;;;129.10;;
75156;SDS011;63736;50.076;8.198;2023-11-19T05:14:46;485.50;;;128.67;;
75156;SDS011;63736;50.076;8.198;2023-11-19T05:17:14;480.63;;;127.38;;
75156;SDS011;63736;50.076;8.198;2023-11-19T05:19:40;477.17;;;125.90;;
75156;SDS011;63736;50.076;8.198;2023-11-19T05:22:05;473.60;;;125.03;;
75156;SDS011;63736;50.076;8.198;2023-11-19T05:24:31;470.47;;;124.40;;
75156;SDS011;63736;50.076;8.198;2023-11-19T05:26:56;469.23;;;124.83;;
75156;SDS011;63736;50.076;8.198;2023-11-19T05:29:23;464.90;;;123.95;;
75156;SDS011;63736;50.076;8.198;2023-11-19T05:31:48;461.95;;;122.93;;
75156;SDS011;63736;50.076;8.198;2023-11-19T05:34:14;456.77;;;121.77;;
75156;SDS011;63736;50.076;8.198;2023-11-19T05:36:40;456.37;;;120.90;;
75156;SDS011;63736;50.076;8.198;2023-11-19T05:39:05;456.65;;;121.82;;
75156;SDS011;63736;50.076;8.198;2023-11-19T05:41:30;476.57;;;132.37;;
75156;SDS011;63736;50.076;8.198;2023-11-19T05:43:56;458.83;;;123.33;;
75156;SDS011;63736;50.076;8.198;2023-11-19T05:46:21;455.97;;;120.80;;
75156;SDS011;63736;50.076;8.198;2023-11-19T05:48:46;458.83;;;122.73;;
75156;SDS011;63736;50.076;8.198;2023-11-19T05:54:11;458.03;;;122.30;;
75156;SDS011;63736;50.076;8.198;2023-11-19T05:56:38;459.10;;;123.22;;
75156;SDS011;63736;50.076;8.198;2023-11-19T05:59:03;450.97;;;120.33;;
75156;SDS011;63736;50.076;8.198;2023-11-19T06:01:33;451.43;;;120.53;;
75156;SDS011;63736;50.076;8.198;2023-11-19T06:03:59;449.92;;;119.65;;
75156;SDS011;63736;50.076;8.198;2023-11-19T06:06:26;455.00;;;119.95;;
75156;SDS011;63736;50.076;8.198;2023-11-19T06:08:51;455.55;;;120.20;;
75156;SDS011;63736;50.076;8.198;2023-11-19T06:11:17;455.97;;;120.17;;
75156;SDS011;63736;50.076;8.198;2023-11-19T06:13:45;458.77;;;120.65;;
75156;SDS011;63736;50.076;8.198;2023-11-19T06:16:11;461.43;;;121.50;;
75156;SDS011;63736;50.076;8.198;2023-11-19T06:18:37;465.67;;;123.53;;
75156;SDS011;63736;50.076;8.198;2023-11-19T06:21:02;465.77;;;122.73;;
75156;SDS011;63736;50.076;8.198;2023-11-19T06:23:28;466.83;;;123.00;;
75156;SDS011;63736;50.076;8.198;2023-11-19T06:25:53;467.10;;;122.77;;
75156;SDS011;63736;50.076;8.198;2023-11-19T06:28:18;469.90;;;124.07;;
75156;SDS011;63736;50.076;8.198;2023-11-19T06:30:44;479.87;;;127.57;;
75156;SDS011;63736;50.076;8.198;2023-11-19T06:33:12;481.57;;;126.47;;
75156;SDS011;63736;50.076;8.198;2023-11-19T06:35:38;486.98;;;128.63;;
75156;SDS011;63736;50.076;8.198;2023-11-19T06:38:03;492.33;;;129.27;;
75156;SDS011;63736;50.076;8.198;2023-11-19T06:40:34;510.80;;;135.25;;
75156;SDS011;63736;50.076;8.198;2023-11-19T06:43:00;527.65;;;139.93;;
75156;SDS011;63736;50.076;8.198;2023-11-19T06:45:27;546.13;;;145.27;;
75156;SDS011;63736;50.076;8.198;2023-11-19T06:47:53;550.80;;;147.53;;
75156;SDS011;63736;50.076;8.198;2023-11-19T06:50:18;537.93;;;143.40;;
75156;SDS011;63736;50.076;8.198;2023-11-19T06:52:44;519.93;;;137.77;;
75156;SDS011;63736;50.076;8.198;2023-11-19T06:55:10;532.55;;;141.20;;
75156;SDS011;63736;50.076;8.198;2023-11-19T06:57:35;542.70;;;143.97;;
75156;SDS011;63736;50.076;8.198;2023-11-19T07:00:00;557.60;;;148.40;;
75156;SDS011;63736;50.076;8.198;2023-11-19T07:02:26;544.27;;;145.10;;
75156;SDS011;63736;50.076;8.198;2023-11-19T07:04:51;539.07;;;143.50;;
75156;SDS011;63736;50.076;8.198;2023-11-19T07:07:17;542.23;;;144.77;;
75156;SDS011;63736;50.076;8.198;2023-11-19T07:09:42;547.93;;;145.93;;
75156;SDS011;63736;50.076;8.198;2023-11-19T07:12:07;525.07;;;138.90;;
75156;SDS011;63736;50.076;8.198;2023-11-19T07:14:33;525.13;;;139.20;;
75156;SDS011;63736;50.076;8.198;2023-11-19T07:16:59;523.23;;;138.63;;
75156;SDS011;63736;50.076;8.198;2023-11-19T07:19:25;517.00;;;136.60;;
75156;SDS011;63736;50.076;8.198;2023-11-19T07:21:50;516.87;;;136.53;;
75156;SDS011;63736;50.076;8.198;2023-11-19T07:24:15;503.60;;;131.90;;
75156;SDS011;63736;50.076;8.198;2023-11-19T07:26:45;496.45;;;129.73;;
75156;SDS011;63736;50.076;8.198;2023-11-19T07:29:12;510.20;;;134.50;;
75156;SDS011;63736;50.076;8.198;2023-11-19T07:31:38;516.43;;;136.57;;
75156;SDS011;63736;50.076;8.198;2023-11-19T07:34:04;513.53;;;135.35;;
75156;SDS011;63736;50.076;8.198;2023-11-19T07:36:31;506.80;;;133.40;;
75156;SDS011;63736;50.076;8.198;2023-11-19T07:38:57;534.60;;;141.30;;
75156;SDS011;63736;50.076;8.198;2023-11-19T07:41:23;475.90;;;127.53;;
75156;SDS011;63736;50.076;8.198;2023-11-19T07:43:50;523.10;;;137.63;;
75156;SDS011;63736;50.076;8.198;2023-11-19T07:46:16;477.98;;;123.65;;
75156;SDS011;63736;50.076;8.198;2023-11-19T07:48:44;521.10;;;136.37;;
75156;SDS011;63736;50.076;8.198;2023-11-19T07:51:10;529.30;;;137.70;;
75156;SDS011;63736;50.076;8.198;2023-11-19T07:53:37;534.57;;;138.53;;
75156;SDS011;63736;50.076;8.198;2023-11-19T07:56:03;530.38;;;137.13;;
75156;SDS011;63736;50.076;8.198;2023-11-19T07:58:29;514.15;;;133.80;;
75156;SDS011;63736;50.076;8.198;2023-11-19T08:00:54;513.27;;;132.80;;
75156;SDS011;63736;50.076;8.198;2023-11-19T08:03:19;510.13;;;132.47;;
75156;SDS011;63736;50.076;8.198;2023-11-19T08:05:47;511.00;;;132.55;;
75156;SDS011;63736;50.076;8.198;2023-11-19T08:08:12;519.70;;;134.97;;
75156;SDS011;63736;50.076;8.198;2023-11-19T08:10:37;519.03;;;135.00;;
75156;SDS011;63736;50.076;8.198;2023-11-19T08:13:03;513.40;;;132.73;;
75156;SDS011;63736;50.076;8.198;2023-11-19T08:15:29;507.53;;;131.57;;
75156;SDS011;63736;50.076;8.198;2023-11-19T08:17:54;508.57;;;131.83;;
75156;SDS011;63736;50.076;8.198;2023-11-19T08:20:19;506.17;;;130.43;;
75156;SDS011;63736;50.076;8.198;2023-11-19T08:22:45;504.50;;;130.50;;
75156;SDS011;63736;50.076;8.198;2023-11-19T08:25:10;503.37;;;130.13;;
75156;SDS011;63736;50.076;8.198;2023-11-19T08:27:35;512.07;;;132.07;;
75156;SDS011;63736;50.076;8.198;2023-11-19T08:30:00;520.43;;;134.10;;
75156;SDS011;63736;50.076;8.198;2023-11-19T08:32:26;477.33;;;123.07;;
75156;SDS011;63736;50.076;8.198;2023-11-19T08:34:52;458.20;;;119.75;;
75156;SDS011;63736;50.076;8.198;2023-11-19T08:37:17;332.33;;;95.55;;
75156;SDS011;63736;50.076;8.198;2023-11-19T08:39:45;338.63;;;97.00;;
75156;SDS011;63736;50.076;8.198;2023-11-19T08:42:11;277.75;;;85.43;;
75156;SDS011;63736;50.076;8.198;2023-11-19T08:44:36;108.50;;;52.37;;
75156;SDS011;63736;50.076;8.198;2023-11-19T08:47:02;46.35;;;32.65;;
75156;SDS011;63736;50.076;8.198;2023-11-19T08:49:27;61.63;;;39.40;;
75156;SDS011;63736;50.076;8.198;2023-11-19T08:51:53;54.27;;;36.90;;
75156;SDS011;63736;50.076;8.198;2023-11-19T08:54:18;46.43;;;32.37;;
75156;SDS011;63736;50.076;8.198;2023-11-19T08:56:45;43.97;;;31.80;;
75156;SDS011;63736;50.076;8.198;2023-11-19T08:59:10;46.63;;;32.73;;
75156;SDS011;63736;50.076;8.198;2023-11-19T09:01:36;44.97;;;31.47;;
75156;SDS011;63736;50.076;8.198;2023-11-19T09:04:01;89.47;;;47.60;;
75156;SDS011;63736;50.076;8.198;2023-11-19T09:06:26;121.97;;;55.70;;
75156;SDS011;63736;50.076;8.198;2023-11-19T09:08:52;123.40;;;56.08;;
75156;SDS011;63736;50.076;8.198;2023-11-19T09:11:17;106.40;;;52.63;;
75156;SDS011;63736;50.076;8.198;2023-11-19T09:13:43;89.33;;;48.30;;
75156;SDS011;63736;50.076;8.198;2023-11-19T09:16:11;79.07;;;45.47;;
75156;SDS011;63736;50.076;8.198;2023-11-19T09:18:36;71.53;;;43.15;;
75156;SDS011;63736;50.076;8.198;2023-11-19T09:21:02;63.87;;;40.83;;
75156;SDS011;63736;50.076;8.198;2023-11-19T09:23:27;64.45;;;42.00;;
75156;SDS011;63736;50.076;8.198;2023-11-19T09:25:55;65.57;;;41.25;;
75156;SDS011;63736;50.076;8.198;2023-11-19T09:28:20;68.37;;;41.57;;
75156;SDS011;63736;50.076;8.198;2023-11-19T09:30:46;75.53;;;43.67;;
75156;SDS011;63736;50.076;8.198;2023-11-19T09:33:11;86.77;;;47.37;;
75156;SDS011;63736;50.076;8.198;2023-11-19T09:35:37;84.30;;;47.37;;
75156;SDS011;63736;50.076;8.198;2023-11-19T09:38:02;74.17;;;42.60;;
75156;SDS011;63736;50.076;8.198;2023-11-19T09:40:27;64.87;;;39.13;;
75156;SDS011;63736;50.076;8.198;2023-11-19T09:42:53;72.43;;;41.07;;
75156;SDS011;63736;50.076;8.198;2023-11-19T09:45:20;99.63;;;48.85;;
75156;SDS011;63736;50.076;8.198;2023-11-19T09:47:46;100.68;;;49.35;;
75156;SDS011;63736;50.076;8.198;2023-11-19T09:50:14;116.63;;;53.30;;
75156;SDS011;63736;50.076;8.198;2023-11-19T09:52:42;123.60;;;54.60;;
75156;SDS011;63736;50.076;8.198;2023-11-19T09:55:08;127.97;;;56.05;;
75156;SDS011;63736;50.076;8.198;2023-11-19T09:57:33;138.20;;;57.50;;
75156;SDS011;63736;50.076;8.198;2023-11-19T10:00:02;123.03;;;55.22;;
75156;SDS011;63736;50.076;8.198;2023-11-19T10:02:30;131.48;;;55.42;;
75156;SDS011;63736;50.076;8.198;2023-11-19T10:04:58;141.88;;;57.53;;
75156;SDS011;63736;50.076;8.198;2023-11-19T10:07:27;202.53;;;68.80;;
75156;SDS011;63736;50.076;8.198;2023-11-19T10:09:52;187.27;;;66.40;;
75156;SDS011;63736;50.076;8.198;2023-11-19T10:12:18;181.00;;;65.10;;
75156;SDS011;63736;50.076;8.198;2023-11-19T10:14:43;186.03;;;66.10;;
75156;SDS011;63736;50.076;8.198;2023-11-19T10:17:10;174.50;;;63.87;;
75156;SDS011;63736;50.076;8.198;2023-11-19T10:19:35;162.35;;;61.58;;
75156;SDS011;63736;50.076;8.198;2023-11-19T10:22:04;148.80;;;59.60;;
75156;SDS011;63736;50.076;8.198;2023-11-19T10:24:31;138.50;;;56.77;;
75156;SDS011;63736;50.076;8.198;2023-11-19T10:26:58;131.25;;;55.85;;
75156;SDS011;63736;50.076;8.198;2023-11-19T10:29:24;122.63;;;56.10;;
75156;SDS011;63736;50.076;8.198;2023-11-19T10:31:55;116.57;;;53.80;;
75156;SDS011;63736;50.076;8.198;2023-11-19T10:34:25;116.35;;;53.72;;
75156;SDS011;63736;50.076;8.198;2023-11-19T10:36:51;111.55;;;52.05;;
75156;SDS011;63736;50.076;8.198;2023-11-19T10:39:17;108.37;;;51.00;;
75156;SDS011;63736;50.076;8.198;2023-11-19T10:41:43;104.18;;;50.00;;
75156;SDS011;63736;50.076;8.198;2023-11-19T10:44:08;95.90;;;47.63;;
75156;SDS011;63736;50.076;8.198;2023-11-19T10:46:41;92.63;;;47.13;;
75156;SDS011;63736;50.076;8.198;2023-11-19T10:49:08;90.50;;;46.30;;
75156;SDS011;63736;50.076;8.198;2023-11-19T10:51:34;85.00;;;45.58;;
75156;SDS011;63736;50.076;8.198;2023-11-19T10:54:03;86.80;;;44.70;;
75156;SDS011;63736;50.076;8.198;2023-11-19T10:56:33;76.03;;;42.88;;
75156;SDS011;63736;50.076;8.198;2023-11-19T10:58:59;68.80;;;41.13;;
75156;SDS011;63736;50.076;8.198;2023-11-19T11:01:26;63.13;;;38.67;;
75156;SDS011;63736;50.076;8.198;2023-11-19T11:03:58;67.95;;;39.90;;
75156;SDS011;63736;50.076;8.198;2023-11-19T11:06:25;67.40;;;39.80;;
75156;SDS011;63736;50.076;8.198;2023-11-19T11:08:51;64.70;;;39.35;;
75156;SDS011;63736;50.076;8.198;2023-11-19T11:11:18;54.80;;;35.80;;
75156;SDS011;63736;50.076;8.198;2023-11-19T11:13:46;58.22;;;36.08;;
75156;SDS011;63736;50.076;8.198;2023-11-19T11:16:12;59.83;;;36.53;;
75156;SDS011;63736;50.076;8.198;2023-11-19T11:18:39;58.23;;;37.47;;
75156;SDS011;63736;50.076;8.198;2023-11-19T11:24:36;61.43;;;39.07;;
75156;SDS011;63736;50.076;8.198;2023-11-19T11:27:36;52.85;;;33.97;;
75156;SDS011;63736;50.076;8.198;2023-11-19T11:30:31;54.30;;;34.65;;
75156;SDS011;63736;50.076;8.198;2023-11-19T11:38:43;42.57;;;29.10;;
75156;SDS011;63736;50.076;8.198;2023-11-19T11:41:15;37.67;;;25.25;;
75156;SDS011;63736;50.076;8.198;2023-11-19T11:43:48;37.35;;;25.73;;
75156;SDS011;63736;50.076;8.198;2023-11-19T11:49:04;36.58;;;25.42;;
75156;SDS011;63736;50.076;8.198;2023-11-19T12:02:07;34.42;;;24.05;;
75156;SDS011;63736;50.076;8.198;2023-11-19T12:04:34;35.03;;;21.45;;
75156;SDS011;63736;50.076;8.198;2023-11-19T12:07:03;27.35;;;18.55;;
75156;SDS011;63736;50.076;8.198;2023-11-19T12:09:33;30.25;;;19.48;;
75156;SDS011;63736;50.076;8.198;2023-11-19T12:15:01;35.47;;;24.52;;
75156;SDS011;63736;50.076;8.198;2023-11-19T12:20:01;35.57;;;22.27;;
75156;SDS011;63736;50.076;8.198;2023-11-19T12:22:27;29.65;;;19.95;;
75156;SDS011;63736;50.076;8.198;2023-11-19T12:24:55;29.40;;;19.15;;
75156;SDS011;63736;50.076;8.198;2023-11-19T12:27:21;32.30;;;20.30;;
75156;SDS011;63736;50.076;8.198;2023-11-19T12:29:47;31.42;;;20.15;;
75156;SDS011;63736;50.076;8.198;2023-11-19T12:32:13;32.50;;;16.77;;
75156;SDS011;63736;50.076;8.198;2023-11-19T12:34:38;27.27;;;16.43;;
75156;SDS011;63736;50.076;8.198;2023-11-19T12:43:22;38.67;;;27.85;;
75156;SDS011;63736;50.076;8.198;2023-11-19T12:45:47;30.77;;;21.43;;
75156;SDS011;63736;50.076;8.198;2023-11-19T12:48:13;27.60;;;18.83;;
75156;SDS011;63736;50.076;8.198;2023-11-19T12:53:19;34.33;;;20.90;;
75156;SDS011;63736;50.076;8.198;2023-11-19T12:55:46;28.83;;;19.40;;
75156;SDS011;63736;50.076;8.198;2023-11-19T12:58:27;28.48;;;17.60;;
75156;SDS011;63736;50.076;8.198;2023-11-19T13:01:05;30.03;;;20.07;;
75156;SDS011;63736;50.076;8.198;2023-11-19T13:03:33;27.05;;;17.33;;
75156;SDS011;63736;50.076;8.198;2023-11-19T13:06:06;25.95;;;16.33;;
75156;SDS011;63736;50.076;8.198;2023-11-19T13:08:39;28.20;;;17.27;;
75156;SDS011;63736;50.076;8.198;2023-11-19T13:11:06;28.75;;;17.20;;
75156;SDS011;63736;50.076;8.198;2023-11-19T13:13:33;25.00;;;14.00;;
75156;SDS011;63736;50.076;8.198;2023-11-19T13:16:18;26.73;;;16.00;;
75156;SDS011;63736;50.076;8.198;2023-11-19T13:18:43;24.53;;;14.97;;
75156;SDS011;63736;50.076;8.198;2023-11-19T13:21:09;22.90;;;12.50;;
75156;SDS011;63736;50.076;8.198;2023-11-19T13:23:34;21.00;;;12.50;;
75156;SDS011;63736;50.076;8.198;2023-11-19T13:26:00;22.43;;;12.50;;
75156;SDS011;63736;50.076;8.198;2023-11-19T13:28:25;19.13;;;10.67;;
75156;SDS011;63736;50.076;8.198;2023-11-19T13:30:51;25.17;;;11.60;;
75156;SDS011;63736;50.076;8.198;2023-11-19T13:33:17;24.48;;;13.25;;
75156;SDS011;63736;50.076;8.198;2023-11-19T13:35:42;20.73;;;11.30;;
75156;SDS011;63736;50.076;8.198;2023-11-19T13:38:08;21.67;;;11.85;;
75156;SDS011;63736;50.076;8.198;2023-11-19T13:40:33;22.70;;;13.70;;
75156;SDS011;63736;50.076;8.198;2023-11-19T13:42:59;26.33;;;12.38;;
75156;SDS011;63736;50.076;8.198;2023-11-19T13:45:24;29.73;;;12.50;;
75156;SDS011;63736;50.076;8.198;2023-11-19T13:47:50;20.40;;;11.13;;
75156;SDS011;63736;50.076;8.198;2023-11-19T13:50:15;22.50;;;11.80;;
75156;SDS011;63736;50.076;8.198;2023-11-19T13:52:45;22.70;;;11.02;;
75156;SDS011;63736;50.076;8.198;2023-11-19T13:55:12;19.25;;;9.90;;
75156;SDS011;63736;50.076;8.198;2023-11-19T13:57:39;23.27;;;9.60;;
75156;SDS011;63736;50.076;8.198;2023-11-19T14:00:06;20.05;;;9.20;;
75156;SDS011;63736;50.076;8.198;2023-11-19T14:02:41;22.02;;;10.27;;
75156;SDS011;63736;50.076;8.198;2023-11-19T14:05:07;22.70;;;8.88;;
75156;SDS011;63736;50.076;8.198;2023-11-19T14:07:33;21.45;;;10.13;;
75156;SDS011;63736;50.076;8.198;2023-11-19T14:09:59;23.57;;;11.93;;
75156;SDS011;63736;50.076;8.198;2023-11-19T14:12:24;22.80;;;11.50;;
75156;SDS011;63736;50.076;8.198;2023-11-19T14:14:49;20.77;;;11.33;;
75156;SDS011;63736;50.076;8.198;2023-11-19T14:17:15;26.97;;;20.67;;
75156;SDS011;63736;50.076;8.198;2023-11-19T14:19:41;35.57;;;22.13;;
75156;SDS011;63736;50.076;8.198;2023-11-19T14:22:07;29.75;;;16.80;;
75156;SDS011;63736;50.076;8.198;2023-11-19T14:24:33;21.80;;;10.65;;
75156;SDS011;63736;50.076;8.198;2023-11-19T14:26:59;16.65;;;6.90;;
75156;SDS011;63736;50.076;8.198;2023-11-19T14:29:25;20.47;;;6.33;;
75156;SDS011;63736;50.076;8.198;2023-11-19T14:31:54;15.38;;;5.82;;
75156;SDS011;63736;50.076;8.198;2023-11-19T14:34:20;20.38;;;7.82;;
75156;SDS011;63736;50.076;8.198;2023-11-19T14:36:45;18.95;;;7.53;;
75156;SDS011;63736;50.076;8.198;2023-11-19T14:39:11;23.43;;;11.77;;
75156;SDS011;63736;50.076;8.198;2023-11-19T14:41:36;38.23;;;21.30;;
75156;SDS011;63736;50.076;8.198;2023-11-19T14:44:01;35.88;;;23.33;;
75156;SDS011;63736;50.076;8.198;2023-11-19T14:46:28;52.20;;;28.07;;
75156;SDS011;63736;50.076;8.198;2023-11-19T14:48:53;19.83;;;7.18;;